Time;durP1;ratioP1;P1;durP2;ratioP2;P2;SDS_P1;SDS_P2;PMS_P1;PMS_P2;Temp;Humidity;BMP_temperature;BMP_pressure;BME280_temperature;BME280_humidity;BME280_pressure;Samples;Min_cycle;Max_cycle;Signal;HPM_P1;HPM_P2
2022/05/16 00:04:24;;;;;;;0.93;0.70;;;15.50;69.30;;;14.15;58.86;100347.16;10254590;28;98659;-85
2022/05/16 00:09:27;;;;;;;1.13;0.30;;;15.40;70.60;;;14.03;59.64;100350.47;10248240;28;97414;-85
2022/05/16 00:14:31;;;;;;;0.57;0.57;;;15.30;72.30;;;13.86;60.26;100352.53;10239664;28;96650;-85
2022/05/16 00:19:34;;;;;;;0.37;0.23;;;15.10;72.50;;;13.77;60.50;100346.44;10259301;28;98922;-85
2022/05/16 00:24:42;;;;;;;0.73;0.53;;;15.00;72.50;;;13.70;60.85;100352.72;10241297;28;98220;-84
2022/05/16 00:29:46;;;;;;;0.80;0.40;;;14.90;73.00;;;13.65;60.50;100350.59;10239892;28;98752;-85
2022/05/16 00:34:49;;;;;;;0.37;0.23;;;14.90;72.40;;;13.61;61.07;100357.28;10262998;28;96838;-85
2022/05/16 00:39:52;;;;;;;0.47;0.47;;;14.80;72.30;;;13.60;61.70;100363.66;10265208;28;96636;-85
2022/05/16 00:44:55;;;;;;;2.53;1.13;;;14.90;72.60;;;13.51;61.70;100367.44;10266734;28;96737;-85
2022/05/16 00:50:02;;;;;;;0.90;0.50;;;14.80;73.20;;;13.43;62.45;100400.34;10261466;28;97219;-85
2022/05/16 00:55:11;;;;;;;0.40;0.40;;;14.70;72.60;;;13.33;62.62;100400.63;10287606;28;97059;-85
2022/05/16 01:00:29;;;;;;;1.37;0.50;;;14.60;74.70;;;13.17;62.65;100397.25;10267013;28;96958;-85
2022/05/16 01:05:33;;;;;;;0.50;0.40;;;14.50;76.00;;;13.04;63.17;100404.00;10250912;28;98205;-84
2022/05/16 01:10:36;;;;;;;1.30;0.80;;;14.30;75.80;;;12.93;64.23;100398.28;10265747;28;98466;-85
2022/05/16 01:15:50;;;;;;;0.30;0.30;;;14.20;75.20;;;12.89;64.54;100407.63;10242044;28;97464;-85
2022/05/16 01:21:31;;;;;;;0.20;0.20;;;14.10;75.80;;;12.88;64.14;100398.78;10246952;28;97610;-84
2022/05/16 01:26:35;;;;;;;0.60;0.47;;;14.10;76.00;;;12.90;64.02;100406.63;10264371;28;96669;-85
2022/05/16 01:31:42;;;;;;;0.40;0.30;;;14.10;75.90;;;12.90;64.21;100396.81;10232019;28;96594;-84
2022/05/16 01:36:45;;;;;;;1.43;0.40;;;14.10;74.60;;;12.96;64.34;100392.59;10256273;28;97246;-84
2022/05/16 01:41:48;;;;;;;0.67;0.50;;;14.20;75.10;;;13.00;64.10;100394.69;10245547;28;97658;-84
2022/05/16 01:46:51;;;;;;;0.83;0.53;;;14.20;76.50;;;12.99;64.29;100390.38;10222877;28;98727;-85
2022/05/16 01:51:54;;;;;;;0.10;0.10;;;14.20;78.10;;;12.98;64.22;100391.38;10257134;28;96702;-85
2022/05/16 01:56:57;;;;;;;0.37;0.30;;;14.20;77.00;;;12.91;64.96;100389.63;10253031;28;96685;-84
2022/05/16 02:02:00;;;;;;;0.07;0.07;;;14.10;78.70;;;12.84;64.63;100392.19;10264028;28;98081;-84
2022/05/16 02:07:04;;;;;;;0.53;0.33;;;14.10;78.80;;;12.74;65.15;100394.25;10271185;28;96873;-84
2022/05/16 02:12:08;;;;;;;0.50;0.30;;;14.00;80.40;;;12.65;65.47;100398.78;10265895;28;96890;-85
2022/05/16 02:17:11;;;;;;;0.70;0.50;;;13.90;79.30;;;12.64;65.22;100407.78;10255613;28;96633;-85
2022/05/16 02:27:35;;;;;;;0.25;0.25;;;13.80;79.60;;;12.59;65.70;100405.69;10254424;28;96705;-84
2022/05/16 02:32:38;;;;;;;0.77;0.20;;;13.80;78.60;;;12.53;65.75;100411.72;10266788;28;97558;-84
2022/05/16 02:37:41;;;;;;;0.27;0.20;;;13.80;79.80;;;12.42;66.14;100417.44;10236270;28;96619;-85
2022/05/16 02:42:45;;;;;;;0.43;0.30;;;13.70;81.30;;;12.34;66.50;100406.78;10267922;28;99013;-84
2022/05/16 02:47:49;;;;;;;0.60;0.30;;;13.60;81.40;;;12.28;67.04;100399.50;10269888;28;98249;-84
2022/05/16 02:52:53;;;;;;;0.93;0.67;;;13.50;81.20;;;12.24;67.15;100398.19;10259428;28;98048;-84
2022/05/16 02:58:00;;;;;;;1.80;0.50;;;13.50;83.10;;;12.17;67.20;100405.19;10260258;28;98060;-87
2022/05/16 03:03:03;;;;;;;0.10;0.10;;;13.50;83.40;;;12.10;67.59;100415.72;10270586;28;96572;-83
2022/05/16 03:08:06;;;;;;;0.40;0.20;;;13.40;84.20;;;12.07;67.87;100405.44;10274531;28;97244;-83
2022/05/16 03:13:09;;;;;;;0.40;0.30;;;13.30;84.70;;;11.99;67.73;100405.44;10267626;28;98697;-83
2022/05/16 03:18:13;;;;;;;1.80;0.50;;;13.30;86.20;;;11.97;68.25;100412.78;10285648;28;97124;-84
2022/05/16 03:23:17;;;;;;;0.87;0.47;;;13.20;86.10;;;11.96;68.43;100416.44;10260401;28;97730;-84
2022/05/16 03:28:21;;;;;;;0.37;0.13;;;13.20;85.90;;;11.94;68.40;100411.28;10292244;28;97536;-84
2022/05/16 03:33:25;;;;;;;0.30;0.27;;;13.20;87.60;;;11.93;68.97;100412.28;10222898;28;96633;-85
2022/05/16 03:43:50;;;;;;;0.70;0.50;;;13.20;89.80;;;11.94;69.72;100421.13;10272118;28;96690;-84
2022/05/16 03:48:53;;;;;;;0.20;0.20;;;13.20;90.60;;;12.03;70.31;100418.25;10254954;28;97825;-85
2022/05/16 03:53:56;;;;;;;0.37;0.30;;;13.20;90.30;;;12.16;70.14;100420.34;10233661;28;97056;-85
2022/05/16 03:59:00;;;;;;;0.40;0.40;;;13.40;91.20;;;12.29;70.18;100425.97;10256059;28;96653;-84
2022/05/16 04:04:03;;;;;;;1.60;0.93;;;13.40;91.20;;;12.48;70.45;100423.91;10240803;28;96682;-84
2022/05/16 04:09:06;;;;;;;0.40;0.37;;;13.60;91.40;;;12.72;70.54;100430.94;10246296;28;97475;-84
2022/05/16 04:14:09;;;;;;;1.57;0.77;;;13.80;92.90;;;13.00;71.05;100424.03;10248352;28;96647;-85
2022/05/16 04:19:12;;;;;;;1.57;0.70;;;14.00;92.20;;;13.31;70.56;100420.50;10260516;28;97754;-85
2022/05/16 04:24:15;;;;;;;0.43;0.33;;;14.30;92.80;;;13.70;70.86;100425.63;10235454;28;96556;-85
2022/05/16 04:29:18;;;;;;;2.30;0.70;;;14.60;92.40;;;14.09;69.60;100428.06;10218363;28;96899;-85
2022/05/16 04:34:21;;;;;;;0.53;0.43;;;15.00;92.40;;;14.45;68.84;100420.09;10252638;28;97296;-85
2022/05/16 04:39:24;;;;;;;1.40;0.80;;;15.40;91.50;;;14.81;68.13;100421.09;10259252;28;97679;-85
2022/05/16 04:44:30;;;;;;;0.68;0.50;;;15.80;91.10;;;15.14;67.47;100432.97;10239259;28;96722;-85
2022/05/16 04:49:34;;;;;;;0.75;0.35;;;16.10;90.60;;;15.48;67.51;100431.44;10248204;28;97584;-85
2022/05/16 04:54:38;;;;;;;1.77;0.98;;;16.40;90.70;;;15.82;66.58;100430.66;10269338;28;98121;-85
2022/05/16 04:59:41;;;;;;;0.98;0.47;;;16.80;90.20;;;16.18;65.45;100434.97;10234102;28;97904;-85
2022/05/16 05:04:45;;;;;;;0.68;0.50;;;17.10;88.70;;;16.50;63.85;100439.69;10248280;28;98467;-85
2022/05/16 05:15:13;;;;;;;0.32;0.30;;;17.80;85.90;;;17.23;60.94;100437.19;10234189;28;98611;-86
2022/05/16 05:20:18;;;;;;;0.80;0.52;;;18.20;83.60;;;17.54;60.22;100428.50;10250042;28;97046;-85
2022/05/16 05:25:21;;;;;;;1.75;0.30;;;18.50;82.50;;;17.84;59.29;100434.28;10211400;28;97484;-87
2022/05/16 05:30:30;;;;;;;1.08;0.60;;;18.80;81.60;;;18.06;56.92;100424.13;10227868;28;96695;-86
2022/05/16 05:35:33;;;;;;;0.52;0.38;;;19.10;79.10;;;18.19;54.08;100428.63;10238943;28;96650;-87
2022/05/16 05:40:37;;;;;;;4.22;0.70;;;19.30;73.90;;;18.31;54.73;100429.63;10235790;28;96520;-87
2022/05/16 05:45:40;;;;;;;0.55;0.40;;;19.40;75.40;;;18.46;56.04;100435.53;10232651;28;96722;-89
2022/05/16 05:50:43;;;;;;;1.35;0.80;;;19.50;76.60;;;18.53;54.17;100443.63;10227385;28;98359;-86
2022/05/16 05:55:47;;;;;;;0.80;0.50;;;19.70;75.00;;;18.62;49.63;100430.72;10248838;28;97534;-87
2022/05/16 06:00:50;;;;;;;1.75;0.50;;;19.80;71.60;;;18.73;50.08;100434.63;10230561;28;96780;-86
2022/05/16 06:05:53;;;;;;;2.08;0.73;;;19.90;70.50;;;18.92;50.60;100439.91;10223988;28;96431;-86
2022/05/16 06:10:57;;;;;;;0.45;0.25;;;20.10;69.00;;;19.03;48.83;100443.78;10264370;28;97753;-86
2022/05/16 06:16:00;;;;;;;0.50;0.50;;;20.20;65.80;;;19.07;46.11;100442.31;10264916;28;96732;-86
2022/05/16 06:21:04;;;;;;;1.33;0.75;;;20.20;62.30;;;19.17;45.47;100439.94;10248567;28;96585;-86
2022/05/16 06:26:07;;;;;;;0.60;0.30;;;20.30;65.40;;;19.39;46.14;100439.56;10249985;28;96517;-87
2022/05/16 06:31:10;;;;;;;1.10;0.63;;;20.50;64.00;;;19.55;44.08;100440.88;10265617;28;97853;-87
2022/05/16 06:36:15;;;;;;;0.77;0.52;;;20.60;63.20;;;19.66;44.43;100443.72;10263846;28;96532;-87
2022/05/16 06:41:18;;;;;;;1.58;0.40;;;20.70;62.00;;;19.80;43.36;100438.22;10231436;28;96605;-87
2022/05/16 06:46:21;;;;;;;0.20;0.20;;;20.90;61.90;;;19.93;43.36;100436.19;10231136;28;96536;-87
2022/05/16 06:51:24;;;;;;;0.73;0.43;;;21.00;61.30;;;20.14;42.87;100447.59;10232126;28;96673;-87
2022/05/16 06:56:27;;;;;;;0.65;0.40;;;21.20;60.60;;;20.36;43.31;100443.41;10263028;28;97983;-86
2022/05/16 07:01:30;;;;;;;0.88;0.70;;;21.40;60.70;;;20.49;43.13;100442.44;10264107;28;96623;-86
2022/05/16 07:06:34;;;;;;;0.32;0.30;;;21.60;60.00;;;20.57;43.24;100440.28;10233396;28;96627;-87
2022/05/16 07:11:36;;;;;;;1.00;0.43;;;21.70;60.00;;;20.56;41.61;100449.38;10207602;28;97835;-87
2022/05/16 07:16:40;;;;;;;0.68;0.45;;;21.80;58.20;;;20.67;42.83;100449.69;10191549;28;97269;-86
2022/05/16 07:21:43;;;;;;;0.35;0.35;;;21.80;59.10;;;20.72;41.70;100449.84;10236549;28;96505;-86
2022/05/16 07:32:11;;;;;;;0.45;0.32;;;21.90;58.70;;;20.78;41.58;100441.63;10254604;28;96649;-86
2022/05/16 07:37:15;;;;;;;1.75;0.47;;;21.90;56.90;;;20.87;42.97;100442.16;10227211;28;98723;-87
2022/05/16 07:42:17;;;;;;;0.30;0.30;;;22.00;58.90;;;20.98;40.80;100433.25;10253018;28;96737;-86
2022/05/16 07:47:20;;;;;;;0.25;0.25;;;22.10;57.50;;;21.11;40.85;100435.75;10253613;28;96633;-86
2022/05/16 07:52:25;;;;;;;0.60;0.30;;;22.20;56.70;;;21.25;42.36;100435.56;10251266;28;96722;-86
2022/05/16 07:57:30;;;;;;;0.10;0.10;;;22.30;58.00;;;21.44;41.89;100439.03;10281163;28;96653;-86
2022/05/16 08:02:33;;;;;;;0.55;0.30;;;22.50;57.90;;;21.54;39.94;100431.16;10196203;28;96454;-87
2022/05/16 08:10:29;;;;;;;0.75;0.50;;;22.60;56.90;;;21.77;41.31;100441.13;10229574;28;96628;-87
2022/05/16 08:13:04;;;;;;;0.45;0.30;;;22.80;57.00;;;22.05;40.03;100435.81;10239573;28;96631;-86
2022/05/16 08:18:09;;;;;;;0.43;0.30;;;23.00;56.50;;;22.35;38.64;100429.44;10237681;28;98078;-87
2022/05/16 08:23:18;;;;;;;0.57;0.40;;;23.20;55.80;;;22.33;37.68;100431.59;10236404;28;96627;-86
2022/05/16 08:28:22;;;;;;;0.75;0.50;;;23.30;54.60;;;22.43;38.03;100429.91;10250281;28;96663;-86
2022/05/16 08:33:29;;;;;;;1.92;0.22;;;23.40;54.40;;;22.44;36.75;100420.72;10250227;28;96616;-87
2022/05/16 08:44:22;;;;;;;0.70;0.43;;;23.50;52.70;;;22.76;36.43;100425.66;10243840;28;96435;-86
2022/05/16 08:49:24;;;;;;;0.50;0.30;;;23.70;53.70;;;22.97;36.40;100418.75;10231617;28;96509;-86
2022/05/16 08:54:48;;;;;;;0.30;0.20;;;23.90;53.00;;;23.15;35.85;100412.25;10255961;28;96659;-85
2022/05/16 09:00:01;;;;;;;0.50;0.50;;;24.20;52.30;;;23.33;35.11;100412.03;10240959;28;96555;-86
2022/05/16 09:05:23;;;;;;;0.50;0.30;;;24.30;51.80;;;23.42;35.22;100413.25;10253014;28;98675;-87
2022/05/16 09:10:45;;;;;;;0.40;0.20;;;24.50;51.50;;;23.71;35.29;100402.34;10266580;28;96593;-86
2022/05/16 09:16:23;;;;;;;0.13;0.13;;;24.70;51.50;;;24.07;33.91;100405.53;10265976;28;96692;-86
2022/05/16 09:21:53;;;;;;;0.30;0.30;;;25.10;51.00;;;24.31;33.45;100404.22;10234116;28;96742;-87
2022/05/16 09:28:34;;;;;;;0.20;0.20;;;25.40;49.20;;;24.51;33.07;100400.94;10264126;28;96611;-86
2022/05/16 09:33:11;;;;;;;0.63;0.38;;;25.60;48.70;;;24.81;33.85;100397.72;10258934;28;96601;-86
2022/05/16 09:38:14;;;;;;;1.23;0.40;;;25.80;49.70;;;24.69;32.58;100387.00;10261519;28;96547;-87
2022/05/16 09:43:20;;;;;;;0.30;0.22;;;25.80;48.70;;;24.68;31.83;100381.81;10213772;28;97806;-86
2022/05/16 09:48:24;;;;;;;1.40;0.35;;;25.80;47.90;;;24.76;32.30;100378.63;10230604;28;96656;-86
2022/05/16 09:53:42;;;;;;;0.20;0.20;;;25.80;47.90;;;24.92;32.44;100380.41;10230308;28;98491;-85
2022/05/16 09:59:05;;;;;;;1.40;0.63;;;25.90;48.00;;;25.16;32.20;100370.06;10261182;28;96527;-86
2022/05/16 10:04:15;;;;;;;0.35;0.15;;;26.20;48.30;;;25.34;32.86;100358.75;10248265;28;96632;-86
2022/05/16 10:09:30;;;;;;;0.43;0.28;;;26.40;48.40;;;25.63;30.18;100355.69;10248721;28;96639;-87
2022/05/16 10:14:36;;;;;;;0.47;0.32;;;26.70;46.90;;;25.75;30.61;100358.22;10246261;28;98067;-86
2022/05/16 10:19:41;;;;;;;1.08;0.25;;;26.80;46.70;;;25.88;31.79;100352.28;10248347;28;96820;-86
2022/05/16 10:24:53;;;;;;;1.95;0.57;;;27.00;46.90;;;26.07;29.75;100336.31;10263489;28;96736;-86
2022/05/16 10:30:02;;;;;;;0.40;0.30;;;27.20;46.20;;;26.13;28.44;100344.22;10264303;28;96381;-86
2022/05/16 10:35:13;;;;;;;0.45;0.40;;;27.30;44.90;;;26.10;28.74;100339.31;10264618;28;98404;-87
2022/05/16 10:40:32;;;;;;;0.30;0.30;;;27.30;44.60;;;26.05;28.67;100341.22;10235524;28;96733;-86
2022/05/16 10:45:36;;;;;;;0.90;0.40;;;27.30;44.30;;;26.12;29.79;100341.78;10243713;28;96641;-86
2022/05/16 10:50:50;;;;;;;0.38;0.20;;;27.40;45.00;;;26.27;28.60;100338.25;10231676;28;96788;-88
2022/05/16 10:56:10;;;;;;;0.10;0.10;;;27.50;44.10;;;26.46;28.87;100341.38;10266346;28;96662;-86
2022/05/16 11:01:19;;;;;;;2.10;0.40;;;27.60;44.90;;;26.55;28.14;100329.66;10239537;28;96911;-86
2022/05/16 11:06:31;;;;;;;0.20;0.20;;;27.80;43.60;;;26.85;29.36;100319.84;10241360;28;97507;-86
2022/05/16 11:11:42;;;;;;;0.88;0.60;;;28.00;44.50;;;26.97;28.13;100308.69;10256457;28;96416;-87
2022/05/16 11:16:50;;;;;;;0.10;0.10;;;28.20;43.80;;;26.99;28.29;100303.75;10255644;28;96530;-87
2022/05/16 11:22:08;;;;;;;1.20;0.68;;;28.10;43.40;;;27.23;28.28;100299.41;10231028;28;97056;-88
2022/05/16 11:27:30;;;;;;;0.52;0.30;;;28.20;43.70;;;27.34;27.55;100292.81;10214949;28;96550;-88
2022/05/16 11:32:41;;;;;;;0.30;0.30;;;28.40;43.50;;;27.57;27.66;100282.38;10234503;28;96823;-87
2022/05/16 11:38:38;;;;;;;0.10;0.10;;;28.70;43.50;;;27.79;26.82;100284.81;10246667;28;96563;-88
2022/05/16 11:43:48;;;;;;;0.35;0.20;;;29.00;43.00;;;27.74;27.27;100275.53;10233205;28;96794;-86
2022/05/16 11:49:15;;;;;;;1.98;0.45;;;28.90;42.30;;;27.73;28.38;100273.91;10268805;28;96557;-87
2022/05/16 11:54:51;;;;;;;0.50;0.30;;;28.80;43.50;;;28.12;28.91;100269.59;10229443;28;96647;-87
2022/05/16 12:05:28;;;;;;;0.95;0.70;;;29.40;43.00;;;28.54;26.35;100261.66;10252406;28;96936;-87
2022/05/16 12:10:33;;;;;;;0.30;0.30;;;29.50;42.20;;;28.80;28.01;100254.09;10253995;28;97145;-87
2022/05/16 12:15:36;;;;;;;0.52;0.28;;;29.70;43.70;;;29.01;27.01;100243.78;10251299;28;96514;-87
2022/05/16 12:20:42;;;;;;;1.48;0.40;;;30.00;42.90;;;29.31;26.44;100236.34;10266140;28;96797;-87
2022/05/16 12:25:45;;;;;;;0.40;0.40;;;30.30;42.80;;;29.46;27.07;100227.16;10252167;28;96940;-87
2022/05/16 12:30:58;;;;;;;1.40;0.50;;;30.50;42.80;;;29.57;26.34;100224.03;10268274;28;96579;-86
2022/05/16 12:36:02;;;;;;;0.43;0.30;;;30.60;41.80;;;29.59;26.30;100215.50;10266866;28;96837;-85
2022/05/16 12:41:51;;;;;;;0.45;0.40;;;30.70;42.00;;;29.79;25.78;100204.25;10252388;28;96675;-85
2022/05/16 12:47:44;;;;;;;0.57;0.40;;;30.90;41.50;;;29.94;24.69;100186.00;10239862;28;98620;-85
2022/05/16 12:53:42;;;;;;;0.63;0.50;;;31.20;41.30;;;30.09;25.16;100177.53;10234314;28;96684;-86
2022/05/16 12:59:30;;;;;;;2.53;0.60;;;31.40;41.20;;;30.34;25.79;100170.84;10251001;28;97509;-87
2022/05/16 13:05:10;;;;;;;0.40;0.40;;;31.80;40.60;;;30.58;24.70;100160.53;10251780;28;96415;-85
2022/05/16 13:11:05;;;;;;;0.50;0.38;;;32.10;40.70;;;30.78;25.14;100150.38;10227490;28;96591;-85
2022/05/16 13:16:24;;;;;;;1.00;0.60;;;32.30;40.20;;;30.88;24.78;100152.88;10235737;28;96926;-85
2022/05/16 13:21:55;;;;;;;1.30;0.50;;;32.50;39.80;;;30.79;24.46;100141.00;10248316;28;96635;-85
2022/05/16 13:32:40;;;;;;;0.82;0.40;;;32.30;40.50;;;31.39;25.06;100132.66;10262389;28;96537;-86
2022/05/16 13:37:49;;;;;;;1.15;0.38;;;32.70;41.10;;;31.62;25.23;100126.09;10255604;28;96713;-84
2022/05/16 13:42:54;;;;;;;2.67;0.60;;;32.90;41.00;;;32.07;24.76;100123.41;10248927;28;96833;-86
2022/05/16 13:48:09;;;;;;;0.43;0.28;;;33.00;40.90;;;32.45;23.67;100123.03;10248414;28;96694;-87
2022/05/16 13:53:22;;;;;;;0.50;0.40;;;33.20;40.80;;;32.11;23.46;100124.41;10264425;28;97485;-87
2022/05/16 13:58:31;;;;;;;0.43;0.30;;;33.00;39.90;;;32.01;23.53;100119.16;10265138;28;96576;-87
2022/05/16 14:03:35;;;;;;;0.82;0.47;;;32.90;40.10;;;32.01;24.20;100108.16;10217898;28;96535;-86
2022/05/16 14:08:46;;;;;;;0.20;0.20;;;32.90;39.90;;;31.87;24.83;100110.16;10216499;28;96743;-86
2022/05/16 14:13:54;;;;;;;0.68;0.47;;;32.70;40.60;;;31.62;24.02;100115.13;10249342;28;96790;-86
2022/05/16 14:19:13;;;;;;;0.98;0.57;;;32.60;40.50;;;31.26;24.69;100109.63;10235440;28;97352;-87
2022/05/16 14:24:23;;;;;;;3.17;0.60;;;32.20;40.30;;;31.00;25.46;100101.06;10245264;28;96544;-85
2022/05/16 14:29:32;;;;;;;1.92;0.60;;;31.90;40.80;;;30.88;25.81;100098.03;10236028;28;96910;-85
2022/05/16 14:34:40;;;;;;;0.80;0.63;;;31.60;41.30;;;30.75;25.33;100094.16;10272050;28;96427;-85
2022/05/16 14:39:52;;;;;;;1.93;0.90;;;31.50;41.50;;;30.69;26.84;100084.41;10254339;28;98000;-85
2022/05/16 14:45:14;;;;;;;1.00;0.65;;;31.50;41.70;;;30.24;26.56;100086.88;10256078;28;96371;-85
2022/05/16 14:50:28;;;;;;;0.80;0.52;;;31.40;41.70;;;29.71;27.91;100087.19;10255174;28;97471;-84
2022/05/16 14:55:50;;;;;;;1.33;0.60;;;30.90;43.20;;;29.52;27.69;100083.66;10255875;28;96495;-85
2022/05/16 15:06:15;;;;;;;1.50;0.70;;;30.40;42.90;;;29.22;29.18;100076.66;10252275;28;96714;-84
2022/05/16 15:11:26;;;;;;;0.40;0.38;;;30.30;44.20;;;28.87;29.61;100083.38;10254761;28;96554;-84
2022/05/16 15:16:29;;;;;;;0.52;0.40;;;29.90;44.40;;;28.45;29.56;100083.00;10237949;28;96598;-84
2022/05/16 15:21:41;;;;;;;0.40;0.30;;;29.50;44.00;;;28.19;30.34;100081.59;10247611;28;96639;-84
2022/05/16 15:26:44;;;;;;;0.90;0.67;;;29.20;44.40;;;27.99;30.78;100075.19;10213685;28;96616;-84
2022/05/16 15:31:47;;;;;;;0.40;0.38;;;29.10;45.30;;;27.84;31.55;100071.81;10221739;28;96501;-84
2022/05/16 15:36:51;;;;;;;0.60;0.40;;;29.00;45.90;;;27.61;30.88;100071.38;10237416;28;96567;-84
2022/05/16 15:41:54;;;;;;;0.70;0.43;;;28.70;44.90;;;27.45;32.45;100059.75;10252916;28;96584;-83
2022/05/16 15:46:59;;;;;;;1.20;0.80;;;28.60;46.30;;;27.51;32.45;100056.97;10249656;28;96611;-83
2022/05/16 15:52:02;;;;;;;1.05;0.50;;;28.50;46.10;;;27.94;31.92;100049.84;10242264;28;97508;-84
2022/05/16 15:57:05;;;;;;;0.73;0.60;;;28.80;46.00;;;28.43;31.35;100027.00;10240681;28;96718;-83
2022/05/16 16:02:18;;;;;;;0.95;0.50;;;29.30;45.50;;;28.59;31.32;100033.91;10258057;28;96605;-84
2022/05/16 16:12:43;;;;;;;0.47;0.38;;;29.60;46.00;;;28.23;31.89;100041.66;10285615;28;96794;-84
2022/05/16 16:17:46;;;;;;;0.43;0.25;;;29.40;46.00;;;27.92;33.17;100039.22;10242647;28;96580;-83
2022/05/16 16:22:50;;;;;;;0.60;0.35;;;29.10;46.70;;;27.65;34.02;100041.59;10265066;28;96676;-84
2022/05/16 16:27:53;;;;;;;0.50;0.40;;;28.90;47.60;;;27.47;33.30;100043.91;10253651;28;96753;-84
2022/05/16 16:32:57;;;;;;;2.03;0.55;;;28.70;47.00;;;27.62;34.16;100045.72;10267175;28;96765;-84
2022/05/16 16:38:06;;;;;;;1.15;0.77;;;28.70;48.00;;;27.86;33.84;100042.28;10250120;28;96696;-84
2022/05/16 16:43:27;;;;;;;1.65;0.77;;;28.70;47.90;;;28.31;32.72;100041.03;10258950;28;98908;-84
2022/05/16 16:48:32;;;;;;;0.63;0.60;;;29.00;47.70;;;28.53;31.61;100035.09;10231822;28;96935;-85
2022/05/16 16:58:57;;;;;;;0.60;0.40;;;29.20;46.80;;;28.21;32.54;100031.03;10250333;28;97238;-84
2022/05/16 17:04:00;;;;;;;0.82;0.40;;;29.10;46.80;;;27.88;32.78;100038.16;10269822;28;98591;-83
2022/05/16 17:09:04;;;;;;;0.60;0.60;;;28.90;46.90;;;27.58;33.66;100031.00;10265810;28;96744;-83
2022/05/16 17:14:06;;;;;;;0.65;0.47;;;28.70;47.80;;;27.29;34.37;100036.41;10266798;28;97282;-83
2022/05/16 17:19:09;;;;;;;1.17;0.70;;;28.50;48.20;;;27.00;35.27;100030.00;10264300;28;96704;-83
2022/05/16 17:24:12;;;;;;;1.02;0.60;;;28.10;49.00;;;26.66;35.71;100033.41;10260692;28;96665;-84
2022/05/16 17:29:16;;;;;;;1.77;0.85;;;27.80;49.60;;;26.38;35.88;100032.09;10252297;28;96617;-83
2022/05/16 17:34:21;;;;;;;0.77;0.47;;;27.50;49.80;;;26.08;36.55;100030.22;10265587;28;96951;-83
2022/05/16 17:39:24;;;;;;;2.05;1.00;;;27.20;49.80;;;25.82;38.34;100037.63;10264887;28;96798;-84
2022/05/16 17:44:36;;;;;;;1.17;0.70;;;26.90;51.20;;;25.52;39.47;100041.91;10227308;28;98019;-84
2022/05/16 17:50:26;;;;;;;0.95;0.65;;;26.70;52.60;;;25.18;41.29;100044.28;10226006;28;97337;-83
2022/05/16 17:55:29;;;;;;;0.90;0.50;;;26.30;54.70;;;24.83;42.68;100051.22;10251816;28;97254;-84
2022/05/16 18:00:33;;;;;;;0.85;0.60;;;25.90;55.60;;;24.51;44.65;100053.22;10252209;28;96599;-84
2022/05/16 18:05:39;;;;;;;1.77;1.10;;;25.70;57.10;;;24.24;45.13;100053.31;10238311;28;98350;-83
2022/05/16 18:16:11;;;;;;;0.82;0.55;;;25.00;57.70;;;23.41;45.76;100069.13;10245334;28;97747;-82
2022/05/16 18:21:15;;;;;;;3.05;0.57;;;24.70;56.70;;;23.07;46.01;100074.72;10249367;28;97435;-83
2022/05/16 18:26:18;;;;;;;0.40;0.40;;;24.30;56.90;;;22.83;46.78;100081.44;10232821;28;96673;-85
2022/05/16 18:31:22;;;;;;;0.68;0.55;;;24.00;58.20;;;22.56;47.53;100087.56;10202981;28;96697;-82
2022/05/16 18:36:26;;;;;;;1.02;0.52;;;23.70;60.30;;;22.30;48.00;100099.09;10231680;28;97331;-84
2022/05/16 18:52:30;;;;;;;0.50;0.38;;;22.90;60.80;;;21.62;49.22;100107.13;10240780;28;97185;-84
2022/05/16 18:57:34;;;;;;;1.08;0.60;;;22.70;61.60;;;21.51;50.10;100109.88;10237568;28;96634;-84
2022/05/16 19:02:57;;;;;;;0.75;0.55;;;22.60;61.70;;;21.35;50.89;100114.16;10257016;28;97996;-84
2022/05/16 19:08:02;;;;;;;0.95;0.68;;;22.40;62.60;;;21.22;51.01;100117.94;10237593;28;96712;-84
2022/05/16 19:13:05;;;;;;;0.82;0.60;;;22.30;62.50;;;21.15;51.20;100116.44;10247996;28;98314;-84
2022/05/16 19:18:11;;;;;;;0.95;0.65;;;22.30;63.60;;;21.10;51.69;100114.44;10244903;28;96798;-84
2022/05/16 19:23:14;;;;;;;1.95;0.60;;;22.20;64.00;;;21.01;52.14;100116.72;10253243;28;97317;-84
2022/05/16 19:33:42;;;;;;;3.10;0.75;;;22.00;64.80;;;20.77;52.45;100131.31;10264901;28;98198;-84
2022/05/16 19:38:51;;;;;;;1.30;0.60;;;21.80;65.10;;;20.64;52.41;100126.97;10237874;28;96578;-84
2022/05/16 19:43:56;;;;;;;0.73;0.40;;;21.70;64.80;;;20.55;52.24;100123.81;10268643;28;97402;-84
2022/05/16 19:49:00;;;;;;;0.90;0.60;;;21.70;64.40;;;20.45;52.49;100123.59;10269238;28;96571;-84
2022/05/16 19:54:05;;;;;;;1.15;0.63;;;21.60;64.80;;;20.33;52.35;100136.19;10259399;28;97931;-83
2022/05/16 19:59:08;;;;;;;0.55;0.50;;;21.40;64.90;;;20.22;52.27;100139.72;10253104;28;96651;-84
2022/05/16 20:04:13;;;;;;;0.88;0.38;;;21.30;65.20;;;20.16;52.28;100132.56;10256859;28;96641;-84
2022/05/16 20:09:17;;;;;;;0.90;0.73;;;21.20;64.40;;;20.13;52.63;100141.09;10221016;28;96581;-84
2022/05/16 20:14:21;;;;;;;0.80;0.55;;;21.20;64.40;;;20.07;53.12;100145.53;10262440;28;96504;-83
2022/05/16 20:19:24;;;;;;;0.98;0.70;;;21.20;65.00;;;19.96;53.79;100144.44;10249058;28;96704;-83
2022/05/16 20:29:50;;;;;;;0.70;0.40;;;21.00;66.60;;;19.68;54.94;100147.78;10235835;28;97143;-84
2022/05/16 20:34:53;;;;;;;0.60;0.43;;;20.90;67.40;;;19.53;55.32;100141.94;10250959;28;97113;-84
2022/05/16 20:40:01;;;;;;;2.70;0.60;;;20.70;68.50;;;19.33;55.48;100144.91;10256095;28;96478;-84
2022/05/16 20:45:08;;;;;;;0.77;0.60;;;20.50;69.00;;;19.15;56.04;100144.91;10251538;28;96699;-84
2022/05/16 20:50:13;;;;;;;0.60;0.60;;;20.30;69.40;;;18.99;56.30;100136.38;10253804;28;96839;-84
2022/05/16 20:55:26;;;;;;;0.60;0.40;;;20.10;70.00;;;18.85;56.96;100134.06;10244119;28;96510;-83
2022/05/16 21:00:34;;;;;;;0.68;0.50;;;19.90;70.40;;;18.72;56.99;100137.72;10250935;28;98229;-84
2022/05/16 21:05:38;;;;;;;0.60;0.50;;;19.80;70.10;;;18.69;57.03;100140.84;10234475;28;96525;-84
2022/05/16 21:10:41;;;;;;;0.70;0.60;;;19.70;69.80;;;18.69;57.09;100138.97;10235473;28;96599;-84
2022/05/16 21:15:44;;;;;;;2.13;0.85;;;19.70;70.30;;;18.67;57.30;100134.88;10257764;28;97424;-84
2022/05/16 21:20:48;;;;;;;0.30;0.28;;;19.70;70.60;;;18.62;57.21;100126.59;10236755;28;96457;-84
2022/05/16 21:25:52;;;;;;;1.67;0.70;;;19.70;70.70;;;18.56;57.48;100135.56;10248633;28;96880;-84
2022/05/16 21:30:55;;;;;;;0.75;0.65;;;19.60;71.10;;;18.53;57.54;100127.91;10246659;28;97487;-84
2022/05/16 21:35:59;;;;;;;1.05;0.60;;;19.60;70.60;;;18.51;57.66;100132.72;10252450;28;96410;-84
2022/05/16 21:41:02;;;;;;;0.93;0.57;;;19.60;70.80;;;18.46;57.87;100126.09;10220116;28;97367;-84
2022/05/16 21:46:06;;;;;;;0.50;0.47;;;19.50;70.60;;;18.45;58.24;100129.84;10208928;28;97380;-84
2022/05/16 21:51:10;;;;;;;1.42;0.75;;;19.60;71.00;;;18.42;59.11;100124.09;10227015;28;97483;-84
2022/05/16 21:56:13;;;;;;;0.80;0.63;;;19.50;72.30;;;18.37;58.84;100130.13;10254639;28;97005;-84
2022/05/16 22:01:18;;;;;;;0.95;0.75;;;19.50;71.90;;;18.33;58.96;100134.31;10248047;28;97091;-84
2022/05/16 22:06:21;;;;;;;1.25;0.90;;;19.50;71.60;;;18.28;59.43;100139.50;10253059;28;96841;-84
2022/05/16 22:11:24;;;;;;;1.45;0.55;;;19.40;72.80;;;18.22;59.96;100128.81;10250003;28;96871;-85
2022/05/16 22:16:28;;;;;;;0.52;0.40;;;19.40;73.20;;;18.12;60.46;100129.31;10218693;28;97112;-84
2022/05/16 22:21:42;;;;;;;0.50;0.40;;;19.30;74.00;;;18.06;61.01;100130.19;10251164;28;96855;-84
2022/05/16 22:26:46;;;;;;;1.90;0.80;;;19.20;74.00;;;17.98;60.90;100128.56;10251006;28;96508;-84
2022/05/16 22:31:49;;;;;;;1.33;0.80;;;19.10;74.90;;;17.88;61.36;100134.44;10251586;28;97419;-84